createdAt,value
2017-12-15T00:01:36.175Z,3.10
2017-12-15T00:04:03.853Z,3.10
2017-12-15T00:06:31.599Z,3.10
2017-12-15T00:08:59.480Z,3.13
2017-12-15T00:11:27.169Z,3.13
2017-12-15T00:13:54.825Z,3.11
2017-12-15T00:16:22.448Z,3.10
2017-12-15T00:18:50.119Z,3.10
2017-12-15T00:21:17.800Z,3.10
2017-12-15T00:23:45.463Z,3.08
2017-12-15T00:26:13.128Z,3.08
2017-12-15T00:28:40.792Z,3.08
2017-12-15T00:31:08.481Z,3.06
2017-12-15T00:33:36.151Z,3.05
2017-12-15T00:36:03.844Z,3.03
2017-12-15T00:38:31.601Z,3.02
2017-12-15T00:40:59.295Z,3.01
2017-12-15T00:43:27.029Z,3.04
2017-12-15T00:45:54.653Z,3.04
2017-12-15T00:48:22.381Z,3.05
2017-12-15T00:50:50.021Z,3.05
2017-12-15T00:53:17.765Z,3.05
2017-12-15T00:55:45.387Z,3.06
2017-12-15T00:58:13.059Z,3.05
2017-12-15T01:00:40.681Z,3.04
2017-12-15T01:03:08.440Z,3.02
2017-12-15T01:05:36.124Z,3.00
2017-12-15T01:08:03.788Z,2.99
2017-12-15T01:10:31.471Z,2.98
2017-12-15T01:12:59.203Z,2.97
2017-12-15T01:15:26.872Z,2.95
2017-12-15T01:17:54.551Z,2.93
2017-12-15T01:20:22.189Z,2.88
2017-12-15T01:22:49.865Z,2.77
2017-12-15T01:25:17.565Z,2.66
2017-12-15T01:27:45.298Z,2.51
2017-12-15T01:30:12.926Z,2.38
2017-12-15T01:32:40.647Z,2.25
2017-12-15T01:35:08.276Z,2.17
2017-12-15T01:37:36.007Z,2.09
2017-12-15T01:40:03.691Z,2.03
2017-12-15T01:42:31.436Z,1.97
2017-12-15T01:44:59.138Z,1.91
2017-12-15T01:47:26.900Z,1.84
2017-12-15T01:49:54.512Z,1.78
2017-12-15T01:52:22.273Z,1.75
2017-12-15T01:54:49.893Z,1.76
2017-12-15T01:57:17.669Z,1.81
2017-12-15T01:59:45.296Z,1.86
2017-12-15T02:02:12.962Z,1.91
2017-12-15T02:04:40.639Z,1.95
2017-12-15T02:07:08.324Z,1.98
2017-12-15T02:09:36.053Z,2.00
2017-12-15T02:12:03.742Z,2.00
2017-12-15T02:14:31.467Z,2.03
2017-12-15T02:16:59.153Z,2.06
2017-12-15T02:19:26.901Z,2.09
2017-12-15T02:21:54.586Z,2.12
2017-12-15T02:24:22.311Z,2.18
2017-12-15T02:26:50.007Z,2.22
2017-12-15T02:29:17.668Z,2.26
2017-12-15T02:31:45.342Z,2.28
2017-12-15T02:34:13.007Z,2.29
2017-12-15T02:36:40.631Z,2.31
2017-12-15T02:39:08.291Z,2.33
2017-12-15T02:41:35.926Z,2.36
2017-12-15T02:44:03.663Z,2.39
2017-12-15T02:46:31.348Z,2.42
2017-12-15T02:48:59.070Z,2.44
2017-12-15T02:51:26.755Z,2.44
2017-12-15T02:53:54.471Z,2.44
2017-12-15T02:56:22.207Z,2.46
2017-12-15T02:58:49.932Z,2.48
2017-12-15T03:01:17.631Z,2.50
2017-12-15T03:03:45.368Z,2.49
2017-12-15T03:06:12.992Z,2.48
2017-12-15T03:08:40.732Z,2.47
2017-12-15T03:11:08.361Z,2.45
2017-12-15T03:13:35.986Z,2.45
2017-12-15T03:16:03.632Z,2.44
2017-12-15T03:18:31.316Z,2.45
2017-12-15T03:20:58.953Z,2.46
2017-12-15T03:23:26.630Z,2.46
2017-12-15T03:25:54.216Z,2.45
2017-12-15T03:28:21.853Z,2.45
2017-12-15T03:30:49.444Z,2.43
2017-12-15T03:33:17.085Z,2.36
2017-12-15T03:35:44.693Z,2.27
2017-12-15T03:38:12.317Z,2.13
2017-12-15T03:40:39.902Z,2.00
2017-12-15T03:43:07.589Z,1.88
2017-12-15T03:45:35.233Z,1.75
2017-12-15T03:48:02.900Z,1.62
2017-12-15T03:50:30.577Z,1.49
2017-12-15T03:52:58.260Z,1.40
2017-12-15T03:55:26.244Z,1.37
2017-12-15T03:57:53.955Z,1.38
2017-12-15T04:00:21.555Z,1.41
2017-12-15T04:02:49.192Z,1.43
2017-12-15T04:05:16.884Z,1.39
2017-12-15T04:07:44.479Z,1.33
2017-12-15T04:10:12.098Z,1.27
2017-12-15T04:12:39.736Z,1.26
2017-12-15T04:15:07.419Z,1.30
2017-12-15T04:17:35.050Z,1.34
2017-12-15T04:20:02.684Z,1.39
2017-12-15T04:22:30.323Z,1.42
2017-12-15T04:24:58.011Z,1.37
2017-12-15T04:27:25.658Z,1.28
2017-12-15T04:29:53.340Z,1.21
2017-12-15T04:32:20.977Z,1.09
2017-12-15T04:34:48.655Z,0.96
2017-12-15T04:37:16.302Z,0.84
2017-12-15T04:39:43.984Z,0.77
2017-12-15T04:42:11.571Z,0.74
2017-12-15T04:44:39.243Z,0.74
2017-12-15T04:47:06.838Z,0.76
2017-12-15T04:49:34.519Z,0.76
2017-12-15T04:52:02.158Z,0.77
2017-12-15T04:54:29.843Z,0.78
2017-12-15T04:56:57.546Z,0.81
2017-12-15T04:59:25.171Z,0.81
2017-12-15T05:01:52.818Z,0.85
2017-12-15T05:04:20.453Z,0.89
2017-12-15T05:06:48.095Z,0.92
2017-12-15T05:09:15.855Z,0.94
2017-12-15T05:11:43.543Z,0.97
2017-12-15T05:14:11.226Z,0.99
2017-12-15T05:16:38.861Z,1.00
2017-12-15T05:19:06.600Z,1.01
2017-12-15T05:21:34.286Z,1.01
2017-12-15T05:24:02.045Z,0.99
2017-12-15T05:26:29.745Z,0.97
2017-12-15T05:28:57.482Z,0.99
2017-12-15T05:31:25.113Z,1.02
2017-12-15T05:33:52.784Z,1.05
2017-12-15T05:36:20.481Z,1.07
2017-12-15T05:38:48.221Z,1.07
2017-12-15T05:41:15.909Z,1.07
2017-12-15T05:43:43.604Z,1.08
2017-12-15T05:46:11.272Z,1.10
2017-12-15T05:48:38.966Z,1.12
2017-12-15T05:51:06.710Z,1.12
2017-12-15T05:53:34.406Z,1.08
2017-12-15T05:56:03.086Z,1.02
2017-12-15T05:58:30.780Z,1.00
2017-12-15T06:00:58.530Z,0.99
2017-12-15T06:03:26.160Z,0.99
2017-12-15T06:05:53.889Z,0.99
2017-12-15T06:08:21.591Z,0.98
2017-12-15T06:10:49.346Z,0.99
2017-12-15T06:13:17.045Z,0.97
2017-12-15T06:15:44.787Z,0.99
2017-12-15T06:18:12.413Z,1.00
2017-12-15T06:20:40.145Z,1.03
2017-12-15T06:23:07.770Z,1.07
2017-12-15T06:25:35.496Z,1.11
2017-12-15T06:28:03.131Z,1.12
2017-12-15T06:30:30.877Z,1.13
2017-12-15T06:32:58.598Z,1.14
2017-12-15T06:35:26.342Z,1.14
2017-12-15T06:37:54.041Z,1.16
2017-12-15T06:40:21.708Z,1.18
2017-12-15T06:42:49.340Z,1.16
2017-12-15T06:45:17.082Z,1.17
2017-12-15T06:47:44.822Z,1.18
2017-12-15T06:50:12.504Z,1.20
2017-12-15T06:52:40.179Z,1.21
2017-12-15T06:55:07.843Z,1.21
2017-12-15T06:57:35.466Z,1.23
2017-12-15T07:00:03.456Z,1.24
2017-12-15T07:02:31.074Z,1.23
2017-12-15T07:04:58.750Z,1.22
2017-12-15T07:07:26.437Z,1.19
2017-12-15T07:09:54.113Z,1.15
2017-12-15T07:12:21.731Z,1.11
2017-12-15T07:14:49.473Z,1.08
2017-12-15T07:17:17.173Z,1.03
2017-12-15T07:19:45.731Z,1.00
2017-12-15T07:22:13.412Z,0.99
2017-12-15T07:24:41.048Z,0.99
2017-12-15T07:27:08.722Z,0.99
2017-12-15T07:29:36.349Z,0.97
2017-12-15T07:32:04.100Z,0.93
2017-12-15T07:34:31.730Z,0.90
2017-12-15T07:36:59.435Z,0.87
2017-12-15T07:39:27.166Z,0.84
2017-12-15T07:41:54.826Z,0.81
2017-12-15T07:44:22.468Z,0.81
2017-12-15T07:46:50.158Z,0.84
2017-12-15T07:49:17.878Z,0.87
2017-12-15T07:51:45.573Z,0.90
2017-12-15T07:54:13.213Z,0.93
2017-12-15T07:56:41.990Z,0.95
2017-12-15T07:59:09.612Z,0.98
2017-12-15T08:01:37.341Z,1.02
2017-12-15T08:04:05.045Z,1.04
2017-12-15T08:06:32.827Z,1.06
2017-12-15T08:09:00.519Z,1.08
2017-12-15T08:11:28.371Z,1.09
2017-12-15T08:13:56.014Z,1.07
2017-12-15T08:16:23.764Z,1.05
2017-12-15T08:18:51.428Z,1.05
2017-12-15T08:21:19.110Z,1.06
2017-12-15T08:23:46.771Z,1.09
2017-12-15T08:26:14.444Z,1.10
2017-12-15T08:28:42.077Z,1.12
2017-12-15T08:31:09.754Z,1.10
2017-12-15T08:33:37.518Z,1.07
2017-12-15T08:36:05.503Z,1.09
2017-12-15T08:38:33.294Z,1.14
2017-12-15T08:41:01.023Z,1.19
2017-12-15T08:43:28.734Z,1.24
2017-12-15T08:45:56.807Z,1.30
2017-12-15T08:48:24.538Z,1.37
2017-12-15T08:50:52.292Z,1.41
2017-12-15T08:53:19.997Z,1.45
2017-12-15T08:55:47.956Z,1.50
2017-12-15T08:58:15.627Z,1.56
2017-12-15T09:00:43.289Z,1.62
2017-12-15T09:03:11.054Z,1.68
2017-12-15T09:05:38.727Z,1.72
2017-12-15T09:08:06.469Z,1.74
2017-12-15T09:10:34.166Z,1.76
2017-12-15T09:13:02.015Z,1.79
2017-12-15T09:15:29.667Z,1.81
2017-12-15T09:17:57.430Z,1.84
2017-12-15T09:20:25.127Z,1.88
2017-12-15T09:22:52.878Z,1.94
2017-12-15T09:25:20.524Z,1.98
2017-12-15T09:27:48.276Z,2.04
2017-12-15T09:30:15.947Z,2.13
2017-12-15T09:32:43.708Z,2.19
2017-12-15T09:35:11.333Z,2.25
2017-12-15T09:37:39.101Z,2.31
2017-12-15T09:40:06.784Z,2.40
2017-12-15T09:42:34.547Z,2.49
2017-12-15T09:45:02.214Z,2.56
2017-12-15T09:47:30.049Z,2.60
2017-12-15T09:49:57.678Z,2.62
2017-12-15T09:52:25.358Z,2.62
2017-12-15T09:54:53.071Z,2.63
2017-12-15T09:57:20.844Z,2.60
2017-12-15T09:59:48.537Z,2.59
2017-12-15T10:02:16.274Z,2.58
2017-12-15T10:04:43.975Z,2.56
2017-12-15T10:07:11.702Z,2.56
2017-12-15T10:09:39.397Z,2.57
2017-12-15T10:12:07.158Z,2.57
2017-12-15T10:14:34.858Z,2.60
2017-12-15T10:17:02.613Z,2.62
2017-12-15T10:19:30.293Z,2.64
2017-12-15T10:21:57.976Z,2.66
2017-12-15T10:24:25.601Z,2.70
2017-12-15T10:26:53.312Z,2.74
2017-12-15T10:29:20.930Z,2.78
2017-12-15T10:31:48.592Z,2.83
2017-12-15T10:34:16.287Z,2.90
2017-12-15T10:36:44.078Z,2.93
2017-12-15T10:39:11.706Z,2.97
2017-12-15T10:41:39.386Z,2.98
2017-12-15T10:44:07.110Z,3.01
2017-12-15T10:46:34.800Z,3.02
2017-12-15T10:49:02.525Z,3.05
2017-12-15T10:51:30.237Z,3.07
2017-12-15T10:53:57.888Z,3.11
2017-12-15T10:56:25.611Z,3.13
2017-12-15T10:58:53.363Z,3.16
2017-12-15T11:01:21.061Z,3.19
2017-12-15T11:03:48.786Z,3.20
2017-12-15T11:06:16.468Z,3.20
2017-12-15T11:08:44.132Z,3.20
2017-12-15T11:11:11.862Z,3.22
2017-12-15T11:13:39.613Z,3.23
2017-12-15T11:16:07.334Z,3.28
2017-12-15T11:18:35.058Z,3.32
2017-12-15T11:21:02.741Z,3.36
2017-12-15T11:23:30.489Z,3.37
2017-12-15T11:25:58.182Z,3.36
2017-12-15T11:28:25.921Z,3.35
2017-12-15T11:30:53.608Z,3.34
2017-12-15T11:33:21.356Z,3.32
2017-12-15T11:35:49.042Z,3.33
2017-12-15T11:38:16.778Z,3.36
2017-12-15T11:40:44.467Z,3.37
2017-12-15T11:43:12.143Z,3.40
2017-12-15T11:45:39.763Z,3.47
2017-12-15T11:48:07.513Z,3.53
2017-12-15T11:50:35.160Z,3.57
2017-12-15T11:53:02.833Z,3.63
2017-12-15T11:55:30.568Z,3.67
2017-12-15T11:57:58.239Z,3.68
2017-12-15T12:00:25.928Z,3.68
2017-12-15T12:02:53.673Z,3.67
2017-12-15T12:05:21.368Z,3.66
2017-12-15T12:07:49.112Z,3.64
2017-12-15T12:10:16.763Z,3.62
2017-12-15T12:12:44.529Z,3.61
2017-12-15T12:15:12.225Z,3.63
2017-12-15T12:17:39.930Z,3.65
2017-12-15T12:20:07.610Z,3.71
2017-12-15T12:22:35.224Z,3.73
2017-12-15T12:25:02.965Z,3.78
2017-12-15T12:27:30.660Z,3.80
2017-12-15T12:29:58.415Z,3.79
2017-12-15T12:32:26.120Z,3.81
2017-12-15T12:34:54.271Z,3.81
2017-12-15T12:37:21.984Z,3.82
2017-12-15T12:39:49.720Z,3.83
2017-12-15T12:42:17.406Z,3.81
2017-12-15T12:44:45.115Z,3.84
2017-12-15T12:47:12.844Z,3.86
2017-12-15T12:49:40.631Z,3.88
2017-12-15T12:52:08.320Z,3.88
2017-12-15T12:54:36.067Z,3.92
2017-12-15T12:57:03.816Z,3.93
2017-12-15T12:59:31.599Z,3.96
2017-12-15T13:01:59.319Z,3.97
2017-12-15T13:04:26.994Z,3.97
2017-12-15T13:06:54.714Z,3.97
2017-12-15T13:09:22.469Z,3.99
2017-12-15T13:11:50.154Z,3.98
2017-12-15T13:14:17.942Z,3.99
2017-12-15T13:16:45.677Z,3.99
2017-12-15T13:19:13.351Z,3.99
2017-12-15T13:21:40.994Z,4.02
2017-12-15T13:24:08.814Z,4.03
2017-12-15T13:26:36.555Z,4.03
2017-12-15T13:29:04.303Z,4.06
2017-12-15T13:31:32.029Z,4.08
2017-12-15T13:33:59.797Z,4.08
2017-12-15T13:36:27.431Z,4.07
2017-12-15T13:38:55.193Z,4.08
2017-12-15T13:41:22.890Z,4.09
2017-12-15T13:43:50.664Z,4.12
2017-12-15T13:46:18.374Z,4.14
2017-12-15T13:48:46.055Z,4.15
2017-12-15T13:51:13.758Z,4.18
2017-12-15T13:53:41.509Z,4.19
2017-12-15T13:56:09.257Z,4.17
2017-12-15T13:58:36.936Z,4.13
2017-12-15T14:01:04.690Z,4.08
2017-12-15T14:03:32.383Z,4.02
2017-12-15T14:06:00.072Z,3.99
2017-12-15T14:08:27.719Z,3.95
2017-12-15T14:10:55.594Z,3.93
2017-12-15T14:13:23.300Z,3.91
2017-12-15T14:15:51.045Z,3.86
2017-12-15T14:18:18.737Z,3.82
2017-12-15T14:20:46.498Z,3.81
2017-12-15T14:23:14.209Z,3.80
2017-12-15T14:25:41.970Z,3.80
2017-12-15T14:28:09.592Z,3.77
2017-12-15T14:30:37.363Z,3.75
2017-12-15T14:33:05.090Z,3.74
2017-12-15T14:35:32.837Z,3.74
2017-12-15T14:38:00.520Z,3.72
2017-12-15T14:40:28.209Z,3.68
2017-12-15T14:42:55.914Z,3.67
2017-12-15T14:45:23.675Z,3.65
2017-12-15T14:47:51.368Z,3.61
2017-12-15T14:50:19.111Z,3.61
2017-12-15T14:52:46.800Z,3.58
2017-12-15T14:55:14.607Z,3.57
2017-12-15T14:57:42.350Z,3.56
2017-12-15T15:00:10.029Z,3.54
2017-12-15T15:02:37.720Z,3.53
2017-12-15T15:05:05.465Z,3.51
2017-12-15T15:07:33.095Z,3.51
2017-12-15T15:10:00.833Z,3.50
2017-12-15T15:12:28.593Z,3.48
2017-12-15T15:14:56.331Z,3.48
2017-12-15T15:17:24.015Z,3.45
2017-12-15T15:19:51.697Z,3.43
2017-12-15T15:22:19.404Z,3.41
2017-12-15T15:24:47.157Z,3.41
2017-12-15T15:27:14.849Z,3.40
2017-12-15T15:29:42.612Z,3.41
2017-12-15T15:32:10.318Z,3.39
2017-12-15T15:34:38.067Z,3.38
2017-12-15T15:37:05.770Z,3.38
2017-12-15T15:39:33.553Z,3.40
2017-12-15T15:42:01.239Z,3.41
2017-12-15T15:44:28.960Z,3.41
2017-12-15T15:46:56.709Z,3.42
2017-12-15T15:49:24.400Z,3.40
2017-12-15T15:51:52.177Z,3.39
2017-12-15T15:54:19.886Z,3.38
2017-12-15T15:56:47.672Z,3.37
2017-12-15T15:59:15.376Z,3.36
2017-12-15T16:01:43.115Z,3.36
2017-12-15T16:04:10.775Z,3.37
2017-12-15T16:06:38.525Z,3.37
2017-12-15T16:09:06.223Z,3.38
2017-12-15T16:11:33.992Z,3.37
2017-12-15T16:14:01.695Z,3.36
2017-12-15T16:16:29.378Z,3.36
2017-12-15T16:18:57.041Z,3.36
2017-12-15T16:21:24.725Z,3.38
2017-12-15T16:23:52.413Z,3.37
2017-12-15T16:26:20.105Z,3.38
2017-12-15T16:28:47.727Z,3.37
2017-12-15T16:31:15.422Z,3.37
2017-12-15T16:33:43.072Z,3.35
2017-12-15T16:36:10.851Z,3.35
2017-12-15T16:38:38.575Z,3.33
2017-12-15T16:41:06.350Z,3.31
2017-12-15T16:43:34.054Z,3.31
2017-12-15T16:46:01.801Z,3.30
2017-12-15T16:48:29.506Z,3.27
2017-12-15T16:50:57.244Z,3.25
2017-12-15T16:53:24.951Z,3.25
2017-12-15T16:55:52.766Z,3.24
2017-12-15T16:58:20.410Z,3.24
2017-12-15T17:00:48.096Z,3.23
2017-12-15T17:03:15.720Z,3.23
2017-12-15T17:05:43.472Z,3.21
2017-12-15T17:08:11.524Z,3.19
2017-12-15T17:10:39.222Z,3.15
2017-12-15T17:13:06.936Z,3.17
2017-12-15T17:15:34.691Z,3.15
2017-12-15T17:18:02.397Z,3.15
2017-12-15T17:20:30.127Z,3.11
2017-12-15T17:22:58.043Z,3.10
2017-12-15T17:25:25.783Z,3.09
2017-12-15T17:27:53.537Z,3.11
2017-12-15T17:30:21.242Z,3.11
2017-12-15T17:32:49.037Z,3.14
2017-12-15T17:35:16.788Z,3.15
2017-12-15T17:37:44.457Z,3.17
2017-12-15T17:40:12.108Z,3.15
2017-12-15T17:42:39.787Z,3.10
2017-12-15T17:45:07.432Z,3.09
2017-12-15T17:47:35.187Z,3.05
2017-12-15T17:50:03.224Z,3.01
2017-12-15T17:52:30.975Z,2.99
2017-12-15T17:54:58.601Z,2.99
2017-12-15T17:57:26.288Z,2.96
2017-12-15T17:59:54.088Z,2.91
2017-12-15T18:02:21.779Z,2.83
2017-12-15T18:04:49.432Z,2.78
2017-12-15T18:07:17.157Z,2.72
2017-12-15T18:09:44.941Z,2.65
2017-12-15T18:12:12.703Z,2.63
2017-12-15T18:14:40.351Z,2.66
2017-12-15T18:17:08.072Z,2.65
2017-12-15T18:19:35.836Z,2.65
2017-12-15T18:22:03.553Z,2.66
2017-12-15T18:24:31.207Z,2.68
2017-12-15T18:26:58.947Z,2.73
2017-12-15T18:29:26.607Z,2.73
2017-12-15T18:31:54.309Z,2.75
2017-12-15T18:34:21.955Z,2.75
2017-12-15T18:36:49.673Z,2.81
2017-12-15T18:39:17.315Z,2.83
2017-12-15T18:41:45.063Z,2.85
2017-12-15T18:44:12.783Z,2.86
2017-12-15T18:46:40.474Z,2.86
2017-12-15T18:49:08.162Z,2.85
2017-12-15T18:51:35.933Z,2.85
2017-12-15T18:54:03.579Z,2.84
2017-12-15T18:56:31.442Z,2.81
2017-12-15T18:58:59.177Z,2.82
2017-12-15T19:01:26.845Z,2.81
2017-12-15T19:03:54.552Z,2.81
2017-12-15T19:06:22.304Z,2.82
2017-12-15T19:08:50.058Z,2.81
2017-12-15T19:11:17.678Z,2.80
2017-12-15T19:13:45.361Z,2.78
2017-12-15T19:16:13.122Z,2.80
2017-12-15T19:18:40.809Z,2.81
2017-12-15T19:21:08.501Z,2.81
2017-12-15T19:23:36.200Z,2.83
2017-12-15T19:26:04.682Z,2.81
2017-12-15T19:28:32.488Z,2.82
2017-12-15T19:31:00.157Z,2.84
2017-12-15T19:33:27.858Z,2.84
2017-12-15T19:35:55.529Z,2.85
2017-12-15T19:38:23.286Z,2.81
2017-12-15T19:40:51.042Z,2.79
2017-12-15T19:43:18.796Z,2.77
2017-12-15T19:45:46.438Z,2.76
2017-12-15T19:48:14.120Z,2.76
2017-12-15T19:50:41.767Z,2.82
2017-12-15T19:53:09.454Z,2.79
2017-12-15T19:55:37.159Z,2.81
2017-12-15T19:58:04.924Z,2.82
2017-12-15T20:00:32.637Z,2.87
2017-12-15T20:03:00.476Z,2.86
2017-12-15T20:05:28.200Z,2.85
2017-12-15T20:07:56.045Z,2.87
2017-12-15T20:10:23.774Z,2.89
2017-12-15T20:12:51.532Z,2.92
2017-12-15T20:15:19.290Z,2.93
2017-12-15T20:17:47.064Z,2.95
2017-12-15T20:20:14.709Z,2.96
2017-12-15T20:22:42.400Z,2.97
2017-12-15T20:25:10.097Z,2.98
2017-12-15T20:27:37.828Z,2.96
2017-12-15T20:30:05.568Z,2.96
2017-12-15T20:32:33.257Z,2.94
2017-12-15T20:35:00.967Z,2.96
2017-12-15T20:37:28.706Z,2.97
2017-12-15T20:39:56.443Z,2.96
2017-12-15T20:42:24.088Z,2.94
2017-12-15T20:44:51.848Z,2.94
2017-12-15T20:47:19.468Z,2.95
2017-12-15T20:49:47.191Z,2.93
2017-12-15T20:52:14.947Z,2.93
2017-12-15T20:54:42.677Z,2.93
2017-12-15T20:57:10.446Z,2.92
2017-12-15T20:59:38.227Z,2.93
2017-12-15T21:02:05.924Z,2.94
2017-12-15T21:04:33.732Z,2.93
2017-12-15T21:07:01.442Z,2.92
2017-12-15T21:09:29.213Z,2.89
2017-12-15T21:11:56.914Z,2.89
2017-12-15T21:14:24.672Z,2.88
2017-12-15T21:16:52.346Z,2.87
2017-12-15T21:19:20.079Z,2.85
2017-12-15T21:21:47.708Z,2.86
2017-12-15T21:24:15.435Z,2.86
2017-12-15T21:26:43.055Z,2.82
2017-12-15T21:29:10.730Z,2.80
2017-12-15T21:31:38.408Z,2.84
2017-12-15T21:34:06.136Z,2.82
2017-12-15T21:36:33.784Z,2.81
2017-12-15T21:39:01.506Z,2.82
2017-12-15T21:41:29.195Z,2.81
2017-12-15T21:43:56.930Z,2.83
2017-12-15T21:46:24.610Z,2.82
2017-12-15T21:48:52.305Z,2.82
2017-12-15T21:51:20.052Z,2.82
2017-12-15T21:53:47.769Z,2.80
2017-12-15T21:56:15.426Z,2.82
2017-12-15T21:58:43.095Z,2.81
2017-12-15T22:01:10.817Z,2.80
2017-12-15T22:03:38.599Z,2.80
2017-12-15T22:06:06.292Z,2.77
2017-12-15T22:08:34.037Z,2.76
2017-12-15T22:11:01.676Z,2.78
2017-12-15T22:13:29.433Z,2.77
2017-12-15T22:15:57.117Z,2.76
2017-12-15T22:18:24.788Z,2.75
2017-12-15T22:20:52.582Z,2.74
2017-12-15T22:23:20.269Z,2.72
2017-12-15T22:25:47.928Z,2.71
2017-12-15T22:28:15.555Z,2.72
2017-12-15T22:30:43.242Z,2.71
2017-12-15T22:33:10.999Z,2.70
2017-12-15T22:35:38.660Z,2.69
2017-12-15T22:38:06.275Z,2.68
2017-12-15T22:40:33.977Z,2.67
2017-12-15T22:43:01.607Z,2.67
2017-12-15T22:45:29.351Z,2.67
2017-12-15T22:47:57.045Z,2.67
2017-12-15T22:50:24.725Z,2.67
2017-12-15T22:52:52.441Z,2.65
2017-12-15T22:55:20.233Z,2.65
2017-12-15T22:57:47.921Z,2.63
2017-12-15T23:00:15.641Z,2.62
2017-12-15T23:02:43.287Z,2.62
2017-12-15T23:05:10.949Z,2.63
2017-12-15T23:07:38.646Z,2.63
2017-12-15T23:10:07.313Z,2.64
2017-12-15T23:12:34.947Z,2.64
2017-12-15T23:15:02.718Z,2.62
2017-12-15T23:17:30.437Z,2.62
2017-12-15T23:19:58.156Z,2.61
2017-12-15T23:22:25.840Z,2.60
2017-12-15T23:24:53.612Z,2.58
2017-12-15T23:27:21.299Z,2.58
2017-12-15T23:29:52.034Z,2.57
2017-12-15T23:32:19.673Z,2.56
2017-12-15T23:34:47.450Z,2.56
2017-12-15T23:37:15.090Z,2.57
2017-12-15T23:39:42.826Z,2.58
2017-12-15T23:42:10.480Z,2.56
2017-12-15T23:44:38.208Z,2.57
2017-12-15T23:47:05.886Z,2.58
2017-12-15T23:49:33.599Z,2.60
2017-12-15T23:52:01.280Z,2.61
2017-12-15T23:54:40.629Z,2.62
2017-12-15T23:57:08.272Z,2.62
2017-12-15T23:59:36.843Z,2.62
